createdAt,value
2023-05-06T00:00:37.621Z,6.898
2023-05-06T00:01:37.580Z,6.903
2023-05-06T00:02:37.695Z,6.903
2023-05-06T00:03:37.843Z,6.894
2023-05-06T00:04:37.714Z,6.875
2023-05-06T00:05:37.672Z,6.889
2023-05-06T00:06:37.642Z,6.834
2023-05-06T00:07:37.673Z,6.819
2023-05-06T00:08:37.655Z,6.834
2023-05-06T00:09:37.667Z,6.806
2023-05-06T00:10:37.715Z,6.861
2023-05-06T00:11:37.690Z,6.903
2023-05-06T00:12:37.748Z,6.916
2023-05-06T00:13:37.708Z,6.93
2023-05-06T00:14:37.727Z,6.944
2023-05-06T00:15:37.754Z,6.957
2023-05-06T00:16:37.813Z,6.957
2023-05-06T00:17:37.832Z,6.929
2023-05-06T00:18:37.774Z,6.902
2023-05-06T00:19:37.792Z,6.902
2023-05-06T00:20:37.802Z,6.86
2023-05-06T00:21:37.824Z,6.833
2023-05-06T00:22:37.832Z,6.846
2023-05-06T00:23:37.837Z,6.855
2023-05-06T00:24:37.867Z,6.869
2023-05-06T00:25:37.871Z,6.828
2023-05-06T00:26:37.890Z,6.814
2023-05-06T00:27:37.915Z,6.773
2023-05-06T00:28:37.945Z,6.772
2023-05-06T00:29:37.942Z,6.772
2023-05-06T00:30:37.958Z,6.759
2023-05-06T00:31:37.999Z,6.759
2023-05-06T00:32:38.006Z,6.772
2023-05-06T00:33:38.024Z,6.762
2023-05-06T00:34:38.033Z,6.804
2023-05-06T00:35:38.048Z,6.739
2023-05-06T00:36:38.059Z,6.726
2023-05-06T00:37:38.077Z,6.726
2023-05-06T00:38:38.300Z,6.739
2023-05-06T00:39:38.103Z,6.712
2023-05-06T00:40:38.122Z,6.685
2023-05-06T00:41:38.169Z,6.615
2023-05-06T00:42:38.175Z,6.657
2023-05-06T00:43:38.202Z,6.67
2023-05-06T00:44:38.237Z,6.73
2023-05-06T00:45:38.278Z,6.703
2023-05-06T00:46:38.263Z,6.661
2023-05-06T00:47:38.300Z,6.532
2023-05-06T00:48:38.306Z,6.477
2023-05-06T00:49:38.330Z,6.517
2023-05-06T00:50:38.363Z,6.518
2023-05-06T00:51:38.382Z,6.532
2023-05-06T00:52:38.386Z,6.56
2023-05-06T00:53:38.424Z,6.56
2023-05-06T00:54:38.457Z,6.587
2023-05-06T00:55:38.463Z,6.642
2023-05-06T00:56:38.522Z,6.601
2023-05-06T00:57:38.538Z,6.629
2023-05-06T00:58:38.553Z,6.573
2023-05-06T00:59:38.608Z,6.629
2023-05-06T01:00:38.645Z,6.546
2023-05-06T01:01:38.790Z,6.49
2023-05-06T01:02:46.547Z,6.463
2023-05-06T01:03:38.772Z,6.495
2023-05-06T01:04:38.776Z,6.412
2023-05-06T01:05:38.781Z,6.454
2023-05-06T01:06:38.821Z,6.466
2023-05-06T01:07:38.830Z,6.44
2023-05-06T01:08:38.876Z,6.44
2023-05-06T01:09:38.942Z,6.482
2023-05-06T01:10:38.942Z,6.495
2023-05-06T01:11:38.989Z,6.482
2023-05-06T01:12:39.062Z,6.496
2023-05-06T01:13:39.073Z,6.579
2023-05-06T01:14:39.127Z,6.634
2023-05-06T01:15:39.129Z,6.646
2023-05-06T01:16:39.229Z,6.551
2023-05-06T01:17:39.247Z,6.551
2023-05-06T01:18:39.244Z,6.578
2023-05-06T01:19:39.286Z,6.634
2023-05-06T01:20:39.303Z,6.647
2023-05-06T01:21:39.309Z,6.578
2023-05-06T01:22:39.405Z,6.606
2023-05-06T01:23:39.386Z,6.634
2023-05-06T01:24:39.397Z,6.615
2023-05-06T01:25:39.477Z,6.606
2023-05-06T01:26:39.500Z,6.592
2023-05-06T01:27:39.562Z,6.523
2023-05-06T01:28:39.592Z,6.482
2023-05-06T01:29:39.631Z,6.476
2023-05-06T01:30:39.705Z,6.477
2023-05-06T01:31:39.809Z,6.494
2023-05-06T01:32:39.796Z,6.462
2023-05-06T01:33:39.823Z,6.499
2023-05-06T01:34:39.872Z,6.485
2023-05-06T01:35:39.924Z,6.462
2023-05-06T01:36:39.961Z,6.471
2023-05-06T01:37:40.002Z,6.48
2023-05-06T01:38:40.045Z,6.513
2023-05-06T01:39:40.075Z,6.521
2023-05-06T01:40:40.168Z,6.521
2023-05-06T01:41:40.187Z,6.561
2023-05-06T01:42:40.230Z,6.575
2023-05-06T01:43:40.283Z,6.573
2023-05-06T01:44:40.350Z,6.601
2023-05-06T01:45:40.442Z,6.587
2023-05-06T01:46:40.547Z,6.615
2023-05-06T01:47:40.527Z,6.655
2023-05-06T01:48:40.542Z,6.682
2023-05-06T01:49:40.590Z,6.655
2023-05-06T01:50:40.634Z,6.668
2023-05-06T01:51:40.680Z,6.696
2023-05-06T01:52:40.724Z,6.672
2023-05-06T01:53:40.779Z,6.668
2023-05-06T01:54:40.842Z,6.707
2023-05-06T01:55:40.870Z,6.681
2023-05-06T01:56:40.934Z,6.68
2023-05-06T01:57:41.008Z,6.693
2023-05-06T01:58:41.045Z,6.666
2023-05-06T01:59:41.102Z,6.639
2023-05-06T02:00:41.125Z,6.626
2023-05-06T02:01:41.216Z,6.639
2023-05-06T02:02:41.279Z,6.608
2023-05-06T02:03:41.363Z,6.635
2023-05-06T02:04:41.315Z,6.634
2023-05-06T02:05:41.357Z,6.68
2023-05-06T02:06:41.458Z,6.662
2023-05-06T02:07:41.482Z,6.688
2023-05-06T02:08:41.568Z,6.701
2023-05-06T02:09:41.602Z,6.715
2023-05-06T02:10:41.715Z,6.755
2023-05-06T02:11:41.790Z,6.75
2023-05-06T02:12:41.857Z,6.763
2023-05-06T02:13:41.899Z,6.75
2023-05-06T02:14:41.942Z,6.764
2023-05-06T02:15:42.012Z,6.722
2023-05-06T02:16:42.076Z,6.722
2023-05-06T02:17:42.212Z,6.776
2023-05-06T02:18:42.165Z,6.789
2023-05-06T02:19:42.243Z,6.788
2023-05-06T02:20:42.314Z,6.83
2023-05-06T02:21:42.382Z,6.805
2023-05-06T02:22:42.466Z,6.831
2023-05-06T02:23:42.521Z,6.872
2023-05-06T02:24:42.586Z,6.831
2023-05-06T02:25:42.719Z,6.824
2023-05-06T02:26:42.730Z,6.786
2023-05-06T02:27:42.773Z,6.681
2023-05-06T02:28:42.817Z,6.667
2023-05-06T02:29:42.886Z,6.622
2023-05-06T02:30:42.960Z,6.622
2023-05-06T02:31:43.042Z,6.635
2023-05-06T02:32:43.128Z,6.623
2023-05-06T02:33:43.144Z,6.608
2023-05-06T02:34:43.212Z,6.582
2023-05-06T02:35:43.262Z,6.595
2023-05-06T02:36:43.317Z,6.622
2023-05-06T02:37:43.407Z,6.58
2023-05-06T02:38:43.474Z,6.579
2023-05-06T02:39:43.540Z,6.619
2023-05-06T02:40:43.605Z,6.606
2023-05-06T02:41:43.677Z,6.567
2023-05-06T02:42:43.757Z,6.526
2023-05-06T02:43:43.838Z,6.531
2023-05-06T02:44:43.923Z,6.512
2023-05-06T02:45:43.994Z,6.476
2023-05-06T02:46:44.052Z,6.489
2023-05-06T02:47:44.205Z,6.516
2023-05-06T02:48:44.319Z,6.476
2023-05-06T02:49:44.373Z,6.461
2023-05-06T02:50:44.427Z,6.502
2023-05-06T02:51:44.506Z,6.528
2023-05-06T02:52:44.590Z,6.542
2023-05-06T02:53:44.667Z,6.504
2023-05-06T02:54:44.763Z,6.444
2023-05-06T02:55:44.857Z,6.405
2023-05-06T02:56:44.913Z,6.392
2023-05-06T02:57:45.034Z,6.396
2023-05-06T02:58:45.087Z,6.365
2023-05-06T02:59:45.180Z,6.376
2023-05-06T03:00:45.291Z,6.352
2023-05-06T03:01:45.376Z,6.295
2023-05-06T03:02:45.504Z,6.282
2023-05-06T03:03:45.594Z,6.272
2023-05-06T03:04:45.603Z,6.273
2023-05-06T03:05:45.695Z,6.294
2023-05-06T03:06:45.777Z,6.293
2023-05-06T03:07:45.900Z,6.293
2023-05-06T03:08:45.966Z,6.295
2023-05-06T03:09:46.050Z,6.333
2023-05-06T03:10:46.218Z,6.335
2023-05-06T03:11:46.367Z,6.347
2023-05-06T03:12:46.485Z,6.374
2023-05-06T03:13:46.563Z,6.414
2023-05-06T03:14:46.648Z,6.381
2023-05-06T03:15:46.690Z,6.407
2023-05-06T03:16:46.842Z,6.433
2023-05-06T03:17:46.931Z,6.452
2023-05-06T03:18:47.025Z,6.426
2023-05-06T03:19:47.068Z,6.386
2023-05-06T03:20:47.149Z,6.373
2023-05-06T03:21:47.250Z,6.346
2023-05-06T03:22:47.313Z,6.32
2023-05-06T03:23:47.399Z,6.314
2023-05-06T03:24:47.489Z,6.288
2023-05-06T03:25:47.568Z,6.26
2023-05-06T03:26:47.686Z,6.255
2023-05-06T03:27:47.786Z,6.239
2023-05-06T03:28:47.911Z,6.24
2023-05-06T03:29:48.009Z,6.233
2023-05-06T03:30:48.171Z,6.248
2023-05-06T03:31:48.296Z,6.252
2023-05-06T03:32:48.463Z,6.261
2023-05-06T03:33:48.477Z,6.223
2023-05-06T03:34:48.588Z,6.228
2023-05-06T03:35:48.745Z,6.215
2023-05-06T03:36:48.817Z,6.255
2023-05-06T03:37:48.922Z,6.246
2023-05-06T03:38:49.094Z,6.219
2023-05-06T03:39:49.238Z,6.214
2023-05-06T03:40:49.338Z,6.213
2023-05-06T03:41:49.469Z,6.233
2023-05-06T03:42:49.622Z,6.219
2023-05-06T03:43:49.762Z,6.18
2023-05-06T03:44:49.883Z,6.152
2023-05-06T03:45:50.054Z,6.166
2023-05-06T03:46:50.131Z,6.151
2023-05-06T03:47:50.286Z,6.138
2023-05-06T03:48:50.361Z,6.111
2023-05-06T03:49:50.519Z,6.093
2023-05-06T03:50:50.630Z,6.051
2023-05-06T03:51:50.753Z,6.037
2023-05-06T03:52:50.882Z,6.029
2023-05-06T03:53:52.348Z,6.043
2023-05-06T03:54:51.166Z,6.023
2023-05-06T03:55:51.305Z,6.005
2023-05-06T03:56:51.463Z,5.995
2023-05-06T03:57:51.597Z,5.977
2023-05-06T03:58:51.750Z,5.964
2023-05-06T03:59:51.892Z,5.954
2023-05-06T04:00:51.986Z,6.023
2023-05-06T04:01:52.149Z,6.022
2023-05-06T04:02:52.286Z,6.008
2023-05-06T04:03:52.380Z,6.023
2023-05-06T04:04:52.481Z,5.995
2023-05-06T04:05:52.645Z,5.968
2023-05-06T04:06:52.746Z,5.928
2023-05-06T04:07:52.854Z,5.914
2023-05-06T04:08:52.992Z,5.881
2023-05-06T04:09:53.126Z,5.927
2023-05-06T04:10:53.267Z,5.853
2023-05-06T04:11:53.375Z,5.787
2023-05-06T04:12:53.556Z,5.828
2023-05-06T04:13:53.610Z,5.868
2023-05-06T04:14:53.757Z,5.826
2023-05-06T04:15:53.883Z,5.831
2023-05-06T04:16:53.988Z,5.818
2023-05-06T04:17:54.163Z,5.845
2023-05-06T04:18:54.267Z,5.844
2023-05-06T04:19:54.437Z,5.819
2023-05-06T04:20:54.610Z,5.818
2023-05-06T04:21:54.700Z,5.799
2023-05-06T04:22:54.890Z,5.786
2023-05-06T04:23:55.039Z,5.762
2023-05-06T04:24:55.190Z,5.749
2023-05-06T04:25:55.366Z,5.839
2023-05-06T04:26:55.536Z,5.826
2023-05-06T04:27:55.650Z,5.749
2023-05-06T04:28:55.778Z,5.704
2023-05-06T04:29:55.942Z,5.69
2023-05-06T04:30:56.106Z,5.636
2023-05-06T04:31:56.410Z,5.604
2023-05-06T04:32:56.515Z,5.576
2023-05-06T04:33:56.648Z,5.576
2023-05-06T04:34:56.888Z,5.611
2023-05-06T04:35:57.089Z,5.696
2023-05-06T04:36:57.193Z,5.711
2023-05-06T04:37:57.350Z,5.728
2023-05-06T04:38:57.502Z,5.688
2023-05-06T04:39:57.646Z,5.696
2023-05-06T04:40:57.746Z,5.714
2023-05-06T04:41:57.874Z,5.741
2023-05-06T04:42:57.979Z,5.742
2023-05-06T04:43:58.119Z,5.728
2023-05-06T04:44:58.324Z,5.754
2023-05-06T04:45:58.498Z,5.768
2023-05-06T04:46:58.653Z,5.758
2023-05-06T04:47:58.833Z,5.733
2023-05-06T04:48:58.929Z,5.666
2023-05-06T04:49:59.108Z,5.612
2023-05-06T04:50:59.226Z,5.579
2023-05-06T04:51:59.360Z,5.521
2023-05-06T04:52:59.506Z,5.535
2023-05-06T04:53:59.627Z,5.549
2023-05-06T04:54:59.797Z,5.584
2023-05-06T04:55:59.945Z,5.574
2023-05-06T04:57:00.145Z,5.557
2023-05-06T04:58:00.234Z,5.506
2023-05-06T04:59:00.356Z,5.506
2023-05-06T05:00:00.599Z,5.46
2023-05-06T05:01:00.766Z,5.46
2023-05-06T05:02:00.894Z,5.474
2023-05-06T05:03:01.136Z,5.501
2023-05-06T05:04:01.220Z,5.501
2023-05-06T05:05:01.357Z,5.528
2023-05-06T05:06:01.544Z,5.512
2023-05-06T05:07:01.715Z,5.486
2023-05-06T05:08:01.956Z,5.499
2023-05-06T05:09:02.136Z,5.513
2023-05-06T05:10:02.333Z,5.508
2023-05-06T05:11:02.487Z,5.561
2023-05-06T05:12:02.661Z,5.574
2023-05-06T05:13:02.881Z,5.601
2023-05-06T05:14:03.036Z,5.614
2023-05-06T05:15:03.253Z,5.653
2023-05-06T05:16:03.456Z,5.666
2023-05-06T05:17:03.820Z,5.641
2023-05-06T05:18:03.998Z,5.672
2023-05-06T05:19:05.291Z,5.601
2023-05-06T05:20:04.385Z,5.633
2023-05-06T05:21:04.624Z,5.593
2023-05-06T05:22:04.797Z,5.593
2023-05-06T05:23:05.016Z,5.548
2023-05-06T05:24:05.362Z,5.548
2023-05-06T05:25:07.584Z,5.574
2023-05-06T05:26:06.001Z,5.587
2023-05-06T05:27:06.177Z,5.587
2023-05-06T05:28:06.330Z,5.574
2023-05-06T05:29:06.572Z,5.593
2023-05-06T05:30:06.775Z,5.606
2023-05-06T05:31:09.660Z,5.619
2023-05-06T05:32:07.174Z,5.579
2023-05-06T05:33:07.469Z,5.567
2023-05-06T05:34:07.630Z,5.54
2023-05-06T05:35:08.147Z,5.594
2023-05-06T05:36:08.062Z,5.555
2023-05-06T05:37:08.269Z,5.528
2023-05-06T05:38:08.518Z,5.514
2023-05-06T05:39:08.831Z,5.488
2023-05-06T05:40:09.093Z,5.474
2023-05-06T05:41:09.337Z,5.474
2023-05-06T05:42:09.536Z,5.474
2023-05-06T05:43:09.735Z,5.42
2023-05-06T05:44:09.926Z,5.433
2023-05-06T05:45:10.384Z,5.433
2023-05-06T05:46:10.375Z,5.42
2023-05-06T05:47:10.673Z,5.46
2023-05-06T05:48:10.925Z,5.434
2023-05-06T05:49:11.151Z,5.393
2023-05-06T05:50:11.401Z,5.365
2023-05-06T05:51:11.581Z,5.366
2023-05-06T05:52:11.867Z,5.406
2023-05-06T05:53:12.157Z,5.388
2023-05-06T05:54:12.466Z,5.442
2023-05-06T05:55:12.729Z,5.419
2023-05-06T05:56:13.156Z,5.433
2023-05-06T05:57:13.340Z,5.406
2023-05-06T05:58:13.577Z,5.366
2023-05-06T05:59:13.901Z,5.294
2023-05-06T06:00:14.163Z,5.32
2023-05-06T06:01:14.487Z,5.347
2023-05-06T06:02:14.861Z,5.361
2023-05-06T06:03:15.231Z,5.366
2023-05-06T06:04:15.501Z,5.361
2023-05-06T06:05:15.909Z,5.285
2023-05-06T06:06:16.252Z,5.304
2023-05-06T06:07:16.574Z,5.258
2023-05-06T06:08:16.712Z,5.267
2023-05-06T06:09:16.925Z,5.207
2023-05-06T06:10:17.159Z,5.172
2023-05-06T06:11:17.284Z,5.09
2023-05-06T06:12:17.535Z,5.057
2023-05-06T06:13:17.895Z,5.048
2023-05-06T06:14:17.996Z,5.042
2023-05-06T06:15:18.314Z,5.042
2023-05-06T06:16:18.556Z,5.015
2023-05-06T06:17:18.756Z,4.997
2023-05-06T06:18:19.065Z,4.982
2023-05-06T06:19:19.369Z,5.023
2023-05-06T06:20:19.557Z,5.035
2023-05-06T06:21:19.876Z,5.009
2023-05-06T06:22:20.030Z,4.958
2023-05-06T06:23:20.314Z,4.97
2023-05-06T06:24:20.562Z,4.984
2023-05-06T06:25:20.818Z,4.984
2023-05-06T06:26:21.047Z,4.97
2023-05-06T06:27:21.295Z,4.971
2023-05-06T06:28:21.700Z,4.957
2023-05-06T06:29:21.969Z,4.958
2023-05-06T06:30:22.185Z,4.984
2023-05-06T06:31:22.441Z,4.997
2023-05-06T06:32:22.858Z,4.984
2023-05-06T06:33:23.217Z,4.97
2023-05-06T06:34:23.636Z,4.958
2023-05-06T06:35:23.921Z,4.984
2023-05-06T06:36:24.240Z,4.96
2023-05-06T06:37:24.626Z,4.977
2023-05-06T06:38:24.983Z,5.008
2023-05-06T06:39:25.284Z,5.035
2023-05-06T06:40:25.699Z,5.008
2023-05-06T06:41:26.100Z,4.982
2023-05-06T06:42:27.309Z,4.995
2023-05-06T06:43:26.722Z,5.021
2023-05-06T06:44:27.209Z,5.029
2023-05-06T06:45:27.621Z,5.101
2023-05-06T06:46:27.906Z,5.101
2023-05-06T06:47:28.584Z,5.128
2023-05-06T06:48:28.907Z,5.101
2023-05-06T06:49:29.263Z,5.093
2023-05-06T06:50:29.698Z,5.067
2023-05-06T06:51:30.099Z,5.095
2023-05-06T06:52:30.419Z,5.068
2023-05-06T06:53:30.842Z,5.141
2023-05-06T06:54:31.260Z,5.128
2023-05-06T06:55:31.724Z,5.169
2023-05-06T06:56:32.121Z,5.103
2023-05-06T06:57:32.716Z,5.076
2023-05-06T06:58:33.100Z,5.023
2023-05-06T06:59:33.467Z,5.016
2023-05-06T07:00:33.849Z,4.96
2023-05-06T07:01:34.388Z,4.892
2023-05-06T07:02:34.959Z,4.906
2023-05-06T07:03:35.411Z,4.919
2023-05-06T07:04:35.846Z,4.906
2023-05-06T07:05:36.468Z,4.906
2023-05-06T07:06:36.968Z,4.893
2023-05-06T07:07:37.552Z,4.906
2023-05-06T07:08:37.788Z,4.888
2023-05-06T07:09:40.061Z,4.888
2023-05-06T07:10:38.808Z,4.901
2023-05-06T07:11:39.394Z,4.928
2023-05-06T07:12:39.902Z,4.946
2023-05-06T07:13:40.469Z,4.958
2023-05-06T07:14:40.963Z,5.011
2023-05-06T07:15:41.508Z,5.024
2023-05-06T07:16:44.529Z,5.006
2023-05-06T07:17:42.667Z,5.019
2023-05-06T07:18:43.159Z,5.032
2023-05-06T07:19:43.693Z,5.023
2023-05-06T07:20:44.232Z,5.063
2023-05-06T07:21:44.703Z,5.075
2023-05-06T07:22:45.403Z,5.115
2023-05-06T07:23:46.054Z,5.102
2023-05-06T07:24:46.648Z,5.083
2023-05-06T07:25:47.312Z,5.109
2023-05-06T07:26:47.886Z,5.122
2023-05-06T07:27:48.437Z,5.115
2023-05-06T07:28:49.210Z,5.141
2023-05-06T07:29:49.793Z,5.154
2023-05-06T07:30:50.258Z,5.167
2023-05-06T07:31:50.772Z,5.141
2023-05-06T07:32:51.511Z,5.128
2023-05-06T07:33:52.114Z,5.102
2023-05-06T07:34:52.899Z,5.12
2023-05-06T07:35:53.676Z,5.095
2023-05-06T07:36:53.992Z,5.068
2023-05-06T07:37:54.819Z,5.028
2023-05-06T07:38:55.414Z,5.055
2023-05-06T07:39:55.852Z,5.081
2023-05-06T07:40:56.387Z,5.094
2023-05-06T07:41:56.806Z,5.122
2023-05-06T07:42:57.041Z,5.13
2023-05-06T07:43:57.572Z,5.122
2023-05-06T07:44:58.186Z,5.083
2023-05-06T07:45:58.588Z,5.057
2023-05-06T07:46:59.257Z,5.051
2023-05-06T07:47:59.759Z,5.115
2023-05-06T07:49:00.187Z,5.083
2023-05-06T07:50:00.782Z,5.055
2023-05-06T07:51:01.190Z,5.012
2023-05-06T07:52:01.718Z,4.99
2023-05-06T07:53:02.177Z,4.989
2023-05-06T07:54:02.656Z,5.002
2023-05-06T07:55:03.129Z,5.031
2023-05-06T07:56:03.491Z,5.049
2023-05-06T07:57:04.050Z,5.023
2023-05-06T07:58:04.550Z,5.041
2023-05-06T07:59:04.890Z,5.014
2023-05-06T08:00:05.506Z,5.028
2023-05-06T08:01:05.899Z,5.015
2023-05-06T08:02:06.423Z,5.002
2023-05-06T08:03:07.030Z,5.02
2023-05-06T08:04:07.408Z,4.989
2023-05-06T08:05:07.862Z,5.015
2023-05-06T08:06:08.255Z,5.002
2023-05-06T08:07:08.822Z,5.085
2023-05-06T08:08:09.535Z,5.092
2023-05-06T08:09:11.408Z,5.146
2023-05-06T08:10:10.658Z,5.172
2023-05-06T08:11:11.276Z,5.17
2023-05-06T08:12:11.905Z,5.112
2023-05-06T08:13:12.404Z,5.125
2023-05-06T08:14:12.893Z,5.162
2023-05-06T08:15:13.577Z,5.181
2023-05-06T08:16:13.882Z,5.226
2023-05-06T08:17:14.346Z,5.226
2023-05-06T08:18:22.417Z,5.241
2023-05-06T08:19:15.588Z,5.22
2023-05-06T08:20:16.307Z,5.18
2023-05-06T08:21:16.970Z,5.145
2023-05-06T08:22:17.528Z,5.159
2023-05-06T08:23:18.413Z,5.131
2023-05-06T08:24:19.149Z,5.079
2023-05-06T08:25:19.744Z,5.037
2023-05-06T08:26:20.786Z,5.025
2023-05-06T08:27:21.220Z,5.039
2023-05-06T08:28:23.542Z,5.057
2023-05-06T08:29:22.474Z,5.067
2023-05-06T08:30:23.218Z,5.154
2023-05-06T08:31:24.017Z,5.141
2023-05-06T08:32:24.894Z,5.128
2023-05-06T08:33:25.505Z,5.155
2023-05-06T08:34:26.182Z,5.182
2023-05-06T08:35:26.922Z,5.2
2023-05-06T08:36:27.706Z,5.174
2023-05-06T08:37:28.472Z,5.164
2023-05-06T08:38:29.319Z,5.193
2023-05-06T08:39:30.030Z,5.198
2023-05-06T08:40:30.880Z,5.173
2023-05-06T08:41:31.804Z,5.173
2023-05-06T08:42:32.585Z,5.195
2023-05-06T08:43:33.400Z,5.171
2023-05-06T08:44:34.205Z,5.144
2023-05-06T08:45:35.095Z,5.071
2023-05-06T08:46:35.794Z,5.057
2023-05-06T08:47:36.738Z,5.045
2023-05-06T08:48:37.642Z,5.112
2023-05-06T08:49:38.283Z,5.167
2023-05-06T08:50:39.076Z,5.139
2023-05-06T08:51:39.913Z,5.153
2023-05-06T08:52:40.842Z,5.194
2023-05-06T08:53:41.633Z,5.198
2023-05-06T08:54:42.434Z,5.227
2023-05-06T08:55:42.440Z,5.186
2023-05-06T08:56:43.363Z,5.205
2023-05-06T08:57:44.255Z,5.218
2023-05-06T08:58:45.213Z,5.205
2023-05-06T08:59:46.135Z,5.231
2023-05-06T09:00:47.067Z,5.228
2023-05-06T09:01:48.015Z,5.214
2023-05-06T09:02:48.137Z,5.213
2023-05-06T09:03:48.842Z,5.228
2023-05-06T09:04:49.770Z,5.254
2023-05-06T09:05:50.643Z,5.246
2023-05-06T09:06:51.540Z,5.205
2023-05-06T09:07:51.582Z,5.178
2023-05-06T09:08:52.400Z,5.205
2023-05-06T09:09:52.462Z,5.219
2023-05-06T09:10:53.367Z,5.219
2023-05-06T09:11:54.186Z,5.259
2023-05-06T09:12:54.515Z,5.313
2023-05-06T09:13:54.472Z,5.295
2023-05-06T09:14:55.370Z,5.287
2023-05-06T09:15:55.461Z,5.329
2023-05-06T09:16:55.521Z,5.384
2023-05-06T09:17:56.439Z,5.388
2023-05-06T09:18:56.623Z,5.415
2023-05-06T09:19:57.528Z,5.396
2023-05-06T09:21:00.779Z,5.374
2023-05-06T09:21:58.670Z,5.334
2023-05-06T09:22:58.678Z,5.329
2023-05-06T09:23:58.703Z,5.343
2023-05-06T09:24:59.606Z,5.397
2023-05-06T09:25:59.772Z,5.369
2023-05-06T09:26:59.823Z,5.369
2023-05-06T09:28:00.794Z,5.469
2023-05-06T09:29:00.989Z,5.51
2023-05-06T09:30:01.864Z,5.482
2023-05-06T09:31:02.177Z,5.482
2023-05-06T09:32:02.234Z,5.455
2023-05-06T09:33:03.051Z,5.429
2023-05-06T09:34:03.265Z,5.396
2023-05-06T09:35:03.622Z,5.356
2023-05-06T09:36:03.765Z,5.369
2023-05-06T09:37:04.010Z,5.349
2023-05-06T09:38:05.331Z,5.362
2023-05-06T09:39:04.147Z,5.403
2023-05-06T09:40:04.294Z,5.403
2023-05-06T09:41:04.755Z,5.423
2023-05-06T09:42:05.020Z,5.435
2023-05-06T09:43:05.307Z,5.463
2023-05-06T09:44:05.593Z,5.477
2023-05-06T09:45:05.733Z,5.495
2023-05-06T09:46:06.776Z,5.482
2023-05-06T09:47:07.258Z,5.492
2023-05-06T09:48:07.425Z,5.519
2023-05-06T09:49:07.681Z,5.532
2023-05-06T09:50:07.817Z,5.533
2023-05-06T09:51:08.755Z,5.533
2023-05-06T09:52:09.174Z,5.559
2023-05-06T09:53:09.620Z,5.586
2023-05-06T09:54:10.373Z,5.586
2023-05-06T09:55:10.617Z,5.6
2023-05-06T09:56:10.692Z,5.627
2023-05-06T09:57:11.229Z,5.618
2023-05-06T09:58:11.275Z,5.582
2023-05-06T09:59:11.425Z,5.577
2023-05-06T10:00:11.820Z,5.595
2023-05-06T10:01:15.024Z,5.555
2023-05-06T10:02:12.761Z,5.551
2023-05-06T10:03:13.238Z,5.628
2023-05-06T10:04:13.745Z,5.637
2023-05-06T10:05:14.573Z,5.625
2023-05-06T10:06:13.967Z,5.606
2023-05-06T10:07:14.722Z,5.63
2023-05-06T10:08:14.970Z,5.589
2023-05-06T10:09:15.486Z,5.575
2023-05-06T10:10:15.745Z,5.563
2023-05-06T10:11:16.076Z,5.594
2023-05-06T10:12:16.361Z,5.609
2023-05-06T10:13:17.220Z,5.622
2023-05-06T10:14:17.681Z,5.644
2023-05-06T10:15:18.250Z,5.658
2023-05-06T10:16:18.852Z,5.654
2023-05-06T10:17:19.770Z,5.665
2023-05-06T10:18:20.016Z,5.665
2023-05-06T10:19:21.048Z,5.674
2023-05-06T10:20:20.913Z,5.687
2023-05-06T10:21:21.372Z,5.688
2023-05-06T10:22:22.122Z,5.684
2023-05-06T10:23:22.588Z,5.656
2023-05-06T10:24:22.824Z,5.656
2023-05-06T10:25:23.307Z,5.638
2023-05-06T10:26:23.736Z,5.665
2023-05-06T10:27:24.221Z,5.665
2023-05-06T10:28:30.625Z,5.673
2023-05-06T10:29:25.122Z,5.701
2023-05-06T10:30:25.665Z,5.754
2023-05-06T10:31:26.455Z,5.741
2023-05-06T10:32:27.242Z,5.787
2023-05-06T10:33:27.574Z,5.768
2023-05-06T10:34:27.738Z,5.768
2023-05-06T10:35:28.055Z,5.862
2023-05-06T10:36:28.470Z,5.902
2023-05-06T10:37:28.810Z,5.86
2023-05-06T10:38:29.479Z,5.847
2023-05-06T10:39:29.790Z,5.861
2023-05-06T10:40:30.108Z,5.847
2023-05-06T10:41:32.839Z,5.835
2023-05-06T10:42:31.001Z,5.874
2023-05-06T10:43:31.275Z,5.887
2023-05-06T10:44:31.522Z,5.873
2023-05-06T10:45:31.888Z,5.889
2023-05-06T10:46:32.553Z,5.914
2023-05-06T10:47:32.519Z,5.902
2023-05-06T10:48:32.928Z,5.902
2023-05-06T10:49:33.391Z,5.902
2023-05-06T10:50:33.908Z,5.985
2023-05-06T10:51:34.294Z,6.018
2023-05-06T10:52:34.946Z,6.018
2023-05-06T10:53:35.336Z,6.032
2023-05-06T10:54:35.807Z,5.991
2023-05-06T10:55:36.464Z,6.005
2023-05-06T10:56:36.901Z,6.071
2023-05-06T10:57:37.338Z,6.124
2023-05-06T10:58:38.317Z,6.151
2023-05-06T10:59:38.784Z,6.126
2023-05-06T11:00:39.355Z,6.099
2023-05-06T11:01:39.913Z,6.06
2023-05-06T11:02:40.753Z,6.018
2023-05-06T11:03:41.156Z,6.084
2023-05-06T11:04:41.932Z,6.105
2023-05-06T11:05:42.422Z,6.1
2023-05-06T11:06:43.260Z,6.101
2023-05-06T11:07:43.273Z,6.086
2023-05-06T11:08:46.465Z,6.153
2023-05-06T11:09:44.753Z,6.178
2023-05-06T11:10:45.682Z,6.22
2023-05-06T11:11:46.349Z,6.125
2023-05-06T11:12:46.622Z,6.153
2023-05-06T11:13:47.881Z,6.166
2023-05-06T11:14:47.697Z,6.154
2023-05-06T11:15:47.909Z,6.14
2023-05-06T11:16:48.700Z,6.127
2023-05-06T11:17:49.328Z,6.114
2023-05-06T11:18:50.076Z,6.145
2023-05-06T11:19:50.671Z,6.133
2023-05-06T11:20:51.156Z,6.08
2023-05-06T11:21:51.914Z,6.098
2023-05-06T11:22:52.908Z,6.058
2023-05-06T11:23:52.949Z,6.045
2023-05-06T11:24:53.886Z,6.044
2023-05-06T11:25:53.999Z,6.073
2023-05-06T11:26:54.205Z,6.005
2023-05-06T11:27:54.513Z,5.991
2023-05-06T11:28:55.438Z,5.991
2023-05-06T11:29:55.511Z,5.991
2023-05-06T11:30:56.450Z,5.924
2023-05-06T11:31:56.727Z,5.897
2023-05-06T11:32:57.527Z,5.906
2023-05-06T11:33:58.758Z,5.893
2023-05-06T11:34:58.874Z,5.879
2023-05-06T11:35:59.835Z,5.824
2023-05-06T11:37:00.200Z,5.812
2023-05-06T11:38:00.544Z,5.792
2023-05-06T11:39:00.669Z,5.794
2023-05-06T11:40:00.862Z,5.833
2023-05-06T11:41:01.801Z,5.887
2023-05-06T11:42:01.844Z,5.906
2023-05-06T11:43:01.894Z,5.893
2023-05-06T11:44:02.591Z,5.932
2023-05-06T11:45:02.770Z,5.852
2023-05-06T11:46:02.942Z,5.838
2023-05-06T11:47:03.315Z,5.893
2023-05-06T11:48:03.768Z,5.91
2023-05-06T11:49:04.419Z,5.857
2023-05-06T11:50:04.206Z,5.788
2023-05-06T11:51:04.764Z,5.789
2023-05-06T11:52:05.456Z,5.748
2023-05-06T11:53:05.930Z,5.789
2023-05-06T11:54:06.834Z,5.736
2023-05-06T11:55:06.552Z,5.722
2023-05-06T11:56:07.524Z,5.769
2023-05-06T11:57:07.982Z,5.731
2023-05-06T11:58:08.431Z,5.732
2023-05-06T11:59:09.320Z,5.76
2023-05-06T12:00:09.732Z,5.777
2023-05-06T12:01:10.386Z,5.758
2023-05-06T12:02:10.751Z,5.791
2023-05-06T12:03:11.508Z,5.777
2023-05-06T12:04:11.671Z,5.818
2023-05-06T12:05:11.897Z,5.763
2023-05-06T12:06:12.358Z,5.783
2023-05-06T12:07:12.432Z,5.708
2023-05-06T12:08:26.225Z,5.722
2023-05-06T12:09:13.639Z,5.709
2023-05-06T12:10:14.224Z,5.668
2023-05-06T12:11:14.936Z,5.627
2023-05-06T12:12:15.820Z,5.572
2023-05-06T12:13:16.556Z,5.594
2023-05-06T12:14:17.482Z,5.609
2023-05-06T12:15:18.207Z,5.594
2023-05-06T12:16:18.459Z,5.635
2023-05-06T12:17:18.887Z,5.609
2023-05-06T12:18:19.529Z,5.608
2023-05-06T12:19:20.437Z,5.636
2023-05-06T12:20:21.010Z,5.649
2023-05-06T12:21:21.726Z,5.662
2023-05-06T12:22:22.598Z,5.662
2023-05-06T12:23:23.394Z,5.663
2023-05-06T12:24:23.992Z,5.657
2023-05-06T12:25:24.667Z,5.616
2023-05-06T12:26:24.864Z,5.572
2023-05-06T12:27:25.675Z,5.557
2023-05-06T12:28:26.488Z,5.53
2023-05-06T12:29:26.673Z,5.585
2023-05-06T12:30:26.869Z,5.53
2023-05-06T12:31:27.089Z,5.498
2023-05-06T12:32:28.001Z,5.443
2023-05-06T12:33:28.865Z,5.428
2023-05-06T12:34:28.986Z,5.457
2023-05-06T12:35:29.690Z,5.483
2023-05-06T12:36:30.083Z,5.484
2023-05-06T12:37:30.218Z,5.497
2023-05-06T12:38:30.548Z,5.511
2023-05-06T12:39:31.357Z,5.443
2023-05-06T12:40:31.942Z,5.401
2023-05-06T12:41:04.007Z,5.896
2023-05-06T12:41:32.176Z,5.374
2023-05-06T12:42:32.452Z,5.382
2023-05-06T12:43:32.643Z,5.351
2023-05-06T12:44:33.427Z,5.382
2023-05-06T12:45:34.419Z,5.364
2023-05-06T12:46:34.474Z,5.382
2023-05-06T12:46:49.900Z,6.371
2023-05-06T12:47:34.605Z,5.396
2023-05-06T12:47:49.930Z,6.409
2023-05-06T12:48:35.540Z,5.382
2023-05-06T12:48:49.911Z,6.423
2023-05-06T12:49:35.617Z,5.41
2023-05-06T12:49:54.886Z,6.422
2023-05-06T12:50:36.077Z,5.382
2023-05-06T12:50:54.898Z,6.395
2023-05-06T12:51:35.887Z,5.355
2023-05-06T12:52:36.222Z,5.433